Terminal Aerodrome Forecast
Issued by NWS

Home | Current Version | Previous Version | Text Only | Print | Product List | Glossary On
Versions: 1 2 3 4 5 6 7 8 9 10 11 12 13 14 15 16 17 18 19 20 21
000
FTUS45 KSLC 301914 AAA
TAFEVW
TAF AMD
KEVW 301914Z 3019/0118 10013G20KT P6SM BKN035 BKN060
     FM302100 08017G26KT P6SM BKN060
     FM010300 09011G18KT P6SM BKN060
     FM011000 07020G30KT P6SM BKN060=

USA.gov is the U.S. government's official web portal to all federal, state and local government web resources and services.